Ever Develop — 3FLF8 — position and weather

sailwx.info

Track history (hours):
 
Tides and Currents Weather Stations Pressure Air Temp Water Temp Dewpoint Dewpoint Depression Visibility Wind Speed Wind Dir Waves Ship Positions

Ever Develop

Last reported at 2017-Dec-04 01:00 UTC. Time now 2017-Dec-11 22:55 UTC.
Position N 01°22' E 103°16'.

Type: Ship (hazmat cat D). MMSI: 356391000.

Date/timePositionNaut miles runAvg speedWind from/ knotsBaromVisibWave heightAir tempDewpointWater temp
2017-Dec-04 01:00N 01°22' E 103°16'1113.0
2017-Dec-04 00:09N 01°15' E 103°25'314.3
2017-Dec-03 23:58N 01°14' E 103°27'714.8
2017-Dec-03 23:30N 01°13' E 103°34'611.9
2017-Dec-03 22:59N 01°13' E 103°40'511.3
2017-Dec-03 22:30N 01°16' E 103°44'2 5.0
2017-Dec-03 22:00N 01°15' E 103°47'0 0.2
2017-Dec-03 21:30N 01°15' E 103°47'0 0.0
2017-Dec-03 21:00N 01°15' E 103°47'0 0.0
2017-Dec-03 20:30N 01°15' E 103°47'0 0.0
2017-Dec-03 19:54N 01°15' E 103°47'0 0.0
2017-Dec-03 19:30N 01°15' E 103°47'0 0.0
2017-Dec-03 19:00N 01°15' E 103°47'0 0.0
2017-Dec-03 18:30N 01°15' E 103°47'0 0.0
2017-Dec-03 18:00N 01°15' E 103°47'0 0.0
2017-Dec-03 17:30N 01°15' E 103°47'0 0.0
2017-Dec-03 17:00N 01°15' E 103°47'0 0.0
2017-Dec-03 16:30N 01°15' E 103°47'0 0.0
2017-Dec-03 16:00N 01°15' E 103°47'0 0.0
2017-Dec-03 15:30N 01°15' E 103°47'0 0.0
2017-Dec-03 15:00N 01°15' E 103°47'0 0.0
2017-Dec-03 14:30N 01°15' E 103°47'0 0.0
2017-Dec-03 13:57N 01°15' E 103°47'0 0.0
2017-Dec-03 13:30N 01°15' E 103°47'0 0.0
2017-Dec-03 13:00N 01°15' E 103°47'0 0.0
2017-Dec-03 12:30N 01°15' E 103°47'0 0.0
2017-Dec-03 12:00N 01°15' E 103°47'0 0.0
2017-Dec-03 11:30N 01°15' E 103°47'0 0.0
2017-Dec-03 10:54N 01°15' E 103°47'0 0.0
2017-Dec-03 10:30N 01°15' E 103°47'0 0.0
2017-Dec-03 10:00N 01°15' E 103°47'0 0.0
2017-Dec-03 09:24N 01°15' E 103°47'0 0.0
2017-Dec-03 09:00N 01°15' E 103°47'0 0.0
2017-Dec-03 08:18N 01°15' E 103°47'0 0.0
2017-Dec-03 08:00N 01°15' E 103°47'0 0.0
2017-Dec-03 07:12N 01°15' E 103°47'0 0.0
2017-Dec-03 07:00N 01°15' E 103°47'0 0.0
2017-Dec-03 06:30N 01°15' E 103°47'0 0.0
2017-Dec-03 06:00N 01°15' E 103°47'0 0.0
2017-Dec-03 05:18N 01°15' E 103°47'0 0.0
2017-Dec-03 05:00N 01°15' E 103°47'0 0.0
2017-Dec-03 04:30N 01°15' E 103°47'0 0.0
2017-Dec-03 04:00N 01°15' E 103°47'0 0.0
2017-Dec-03 03:30N 01°15' E 103°47'0 0.0
2017-Dec-03 03:00N 01°15' E 103°47'0 0.0
2017-Dec-03 02:30N 01°15' E 103°47'0 0.0
2017-Dec-03 02:00N 01°15' E 103°47'0 0.6
2017-Dec-03 01:30N 01°15' E 103°47'2 4.4
2017-Dec-03 01:00N 01°15' E 103°44'510.8
2017-Dec-03 00:30N 01°12' E 103°39'4 7.5
2017-Dec-02 23:59N 01°13' E 103°36'4 7.4
2017-Dec-02 23:30N 01°12' E 103°32'3 2.5
2017-Dec-02 22:17N 01°10' E 103°29'1 4.0
2017-Dec-02 21:59N 01°11' E 103°28'1 0.5
2017-Dec-02 19:18N 01°12' E 103°28'1 4.4
2017-Dec-02 18:59N 01°12' E 103°29'4 8.5
2017-Dec-02 18:30N 01°15' E 103°32'6 0.7
2017-Dec-02 09:01N 01°21' E 103°33'0 0.1
2017-Dec-02 08:55N 01°21' E 103°33'0 0.0
2017-Dec-02 08:04N 01°21' E 103°33'0 0.1
2017-Dec-02 07:55N 01°21' E 103°33'0 0.0
2017-Dec-02 07:25N 01°21' E 103°33'0 0.0
2017-Dec-02 06:52N 01°21' E 103°33'0 0.0
2017-Dec-02 06:25N 01°21' E 103°33'0 0.0
2017-Dec-02 05:49N 01°21' E 103°33'0 0.0
2017-Dec-02 05:28N 01°21' E 103°33'0 0.0
2017-Dec-02 04:43N 01°21' E 103°33'0 0.0
2017-Dec-02 04:22N 01°21' E 103°33'0 0.0
2017-Dec-02 03:31N 01°21' E 103°33'0 0.1
2017-Dec-02 03:25N 01°21' E 103°33'0 0.0
2017-Dec-02 02:43N 01°21' E 103°33'0 0.0
2017-Dec-02 02:25N 01°21' E 103°33'0 0.0
2017-Dec-02 01:43N 01°21' E 103°33'0 0.0
2017-Dec-02 01:25N 01°21' E 103°33'0 0.0
2017-Dec-02 00:55N 01°21' E 103°33'0 0.0
2017-Dec-02 00:28N 01°21' E 103°33'0 0.0
2017-Dec-01 23:34N 01°21' E 103°33'0 0.0
2017-Dec-01 23:22N 01°21' E 103°33'0 0.0
2017-Dec-01 22:40N 01°21' E 103°33'0 0.0
2017-Dec-01 22:19N 01°21' E 103°33'0 0.0
2017-Dec-01 21:55N 01°21' E 103°33'0 0.0
2017-Dec-01 21:29N 01°21' E 103°33'0 0.6
2017-Dec-01 21:00N 01°21' E 103°33'3 5.7
2017-Dec-01 20:30N 01°18' E 103°33'4 7.6
2017-Dec-01 20:00N 01°15' E 103°32'1 2.6
2017-Dec-01 19:31N 01°13' E 103°32'3 5.1
2017-Dec-01 19:00N 01°12' E 103°30'3 5.9
2017-Dec-01 18:30N 01°11' E 103°27'611.8
2017-Dec-01 17:59N 01°14' E 103°22'612.7
2017-Dec-01 17:30N 01°18' E 103°17'  
Track history (hours):
 
Tides and Currents Weather Stations Pressure Air Temp Water Temp Dewpoint Dewpoint Depression Visibility Wind Speed Wind Dir Waves Ship Positions

Ever Develop

Last reported at 2017-Dec-04 01:00 UTC. Time now 2017-Dec-11 22:55 UTC.
Position N 01°22' E 103°16'.

Type: Ship (hazmat cat D). MMSI: 356391000.

Date/timePositionNaut miles runAvg speedWind from/ knotsBaromVisibWave heightAir tempDewpointWater temp
2017-Dec-04 01:00N 01°22' E 103°16'1113.0
2017-Dec-04 00:09N 01°15' E 103°25'314.3
2017-Dec-03 23:58N 01°14' E 103°27'714.8
2017-Dec-03 23:30N 01°13' E 103°34'611.9
2017-Dec-03 22:59N 01°13' E 103°40'511.3
2017-Dec-03 22:30N 01°16' E 103°44'2 5.0
2017-Dec-03 22:00N 01°15' E 103°47'0 0.2
2017-Dec-03 21:30N 01°15' E 103°47'0 0.0
2017-Dec-03 21:00N 01°15' E 103°47'0 0.0
2017-Dec-03 20:30N 01°15' E 103°47'0 0.0
2017-Dec-03 19:54N 01°15' E 103°47'0 0.0
2017-Dec-03 19:30N 01°15' E 103°47'0 0.0
2017-Dec-03 19:00N 01°15' E 103°47'0 0.0
2017-Dec-03 18:30N 01°15' E 103°47'0 0.0
2017-Dec-03 18:00N 01°15' E 103°47'0 0.0
2017-Dec-03 17:30N 01°15' E 103°47'0 0.0
2017-Dec-03 17:00N 01°15' E 103°47'0 0.0
2017-Dec-03 16:30N 01°15' E 103°47'0 0.0
2017-Dec-03 16:00N 01°15' E 103°47'0 0.0
2017-Dec-03 15:30N 01°15' E 103°47'0 0.0
2017-Dec-03 15:00N 01°15' E 103°47'0 0.0
2017-Dec-03 14:30N 01°15' E 103°47'0 0.0
2017-Dec-03 13:57N 01°15' E 103°47'0 0.0
2017-Dec-03 13:30N 01°15' E 103°47'0 0.0
2017-Dec-03 13:00N 01°15' E 103°47'0 0.0
2017-Dec-03 12:30N 01°15' E 103°47'0 0.0
2017-Dec-03 12:00N 01°15' E 103°47'0 0.0
2017-Dec-03 11:30N 01°15' E 103°47'0 0.0
2017-Dec-03 10:54N 01°15' E 103°47'0 0.0
2017-Dec-03 10:30N 01°15' E 103°47'0 0.0
2017-Dec-03 10:00N 01°15' E 103°47'0 0.0
2017-Dec-03 09:24N 01°15' E 103°47'0 0.0
2017-Dec-03 09:00N 01°15' E 103°47'0 0.0
2017-Dec-03 08:18N 01°15' E 103°47'0 0.0
2017-Dec-03 08:00N 01°15' E 103°47'0 0.0
2017-Dec-03 07:12N 01°15' E 103°47'0 0.0
2017-Dec-03 07:00N 01°15' E 103°47'0 0.0
2017-Dec-03 06:30N 01°15' E 103°47'0 0.0
2017-Dec-03 06:00N 01°15' E 103°47'0 0.0
2017-Dec-03 05:18N 01°15' E 103°47'0 0.0
2017-Dec-03 05:00N 01°15' E 103°47'0 0.0
2017-Dec-03 04:30N 01°15' E 103°47'0 0.0
2017-Dec-03 04:00N 01°15' E 103°47'0 0.0
2017-Dec-03 03:30N 01°15' E 103°47'0 0.0
2017-Dec-03 03:00N 01°15' E 103°47'0 0.0
2017-Dec-03 02:30N 01°15' E 103°47'0 0.0
2017-Dec-03 02:00N 01°15' E 103°47'0 0.6
2017-Dec-03 01:30N 01°15' E 103°47'2 4.4
2017-Dec-03 01:00N 01°15' E 103°44'510.8
2017-Dec-03 00:30N 01°12' E 103°39'4 7.5
2017-Dec-02 23:59N 01°13' E 103°36'4 7.4
2017-Dec-02 23:30N 01°12' E 103°32'3 2.5
2017-Dec-02 22:17N 01°10' E 103°29'1 4.0
2017-Dec-02 21:59N 01°11' E 103°28'1 0.5
2017-Dec-02 19:18N 01°12' E 103°28'1 4.4
2017-Dec-02 18:59N 01°12' E 103°29'4 8.5
2017-Dec-02 18:30N 01°15' E 103°32'6 0.7
2017-Dec-02 09:01N 01°21' E 103°33'0 0.1
2017-Dec-02 08:55N 01°21' E 103°33'0 0.0
2017-Dec-02 08:04N 01°21' E 103°33'0 0.1
2017-Dec-02 07:55N 01°21' E 103°33'0 0.0
2017-Dec-02 07:25N 01°21' E 103°33'0 0.0
2017-Dec-02 06:52N 01°21' E 103°33'0 0.0
2017-Dec-02 06:25N 01°21' E 103°33'0 0.0
2017-Dec-02 05:49N 01°21' E 103°33'0 0.0
2017-Dec-02 05:28N 01°21' E 103°33'0 0.0
2017-Dec-02 04:43N 01°21' E 103°33'0 0.0
2017-Dec-02 04:22N 01°21' E 103°33'0 0.0
2017-Dec-02 03:31N 01°21' E 103°33'0 0.1
2017-Dec-02 03:25N 01°21' E 103°33'0 0.0
2017-Dec-02 02:43N 01°21' E 103°33'0 0.0
2017-Dec-02 02:25N 01°21' E 103°33'0 0.0
2017-Dec-02 01:43N 01°21' E 103°33'0 0.0
2017-Dec-02 01:25N 01°21' E 103°33'0 0.0
2017-Dec-02 00:55N 01°21' E 103°33'0 0.0
2017-Dec-02 00:28N 01°21' E 103°33'0 0.0
2017-Dec-01 23:34N 01°21' E 103°33'0 0.0
2017-Dec-01 23:22N 01°21' E 103°33'0 0.0
2017-Dec-01 22:40N 01°21' E 103°33'0 0.0
2017-Dec-01 22:19N 01°21' E 103°33'0 0.0
2017-Dec-01 21:55N 01°21' E 103°33'0 0.0
2017-Dec-01 21:29N 01°21' E 103°33'0 0.6
2017-Dec-01 21:00N 01°21' E 103°33'3 5.7
2017-Dec-01 20:30N 01°18' E 103°33'4 7.6
2017-Dec-01 20:00N 01°15' E 103°32'1 2.6
2017-Dec-01 19:31N 01°13' E 103°32'3 5.1
2017-Dec-01 19:00N 01°12' E 103°30'3 5.9
2017-Dec-01 18:30N 01°11' E 103°27'611.8
2017-Dec-01 17:59N 01°14' E 103°22'612.7
2017-Dec-01 17:30N 01°18' E 103°17'  

Dump ship's entire track history